ADDS METAR Data INFO
IDs: Format: Raw Decoded Include TAF

Data at: 1114 UTC 13 Dec 2017

KCNB 131055Z AUTO 28025G33KT 10SM -DZ SCT024 BKN034 OVC075 05/01 A2949 RMK AO2 T00510006
KCNB 131035Z AUTO 28026G35KT 10SM BKN075 06/M01 A2947 RMK AO2 T00621011
KCNB 131015Z AUTO 29021G29KT 10SM CLR 06/M02 A2946 RMK AO2 T00621021
KCNB 130955Z AUTO 30023G30KT 10SM CLR 07/M03 A2945 RMK AO2 T00651029
KCNB 130935Z AUTO 30021G27KT 10SM CLR 07/M03 A2945 RMK AO2 T00681035
KCNB 130915Z AUTO 30018G26KT 10SM CLR 07/M04 A2943 RMK AO2 T00711038
KCNB 130855Z AUTO 32020G26KT 10SM CLR 07/M04 A2944 RMK AO2 T00721041
KCNB 130835Z AUTO 32017G25KT 10SM CLR 07/M04 A2943 RMK AO2 T00731041
KCNB 130815Z AUTO 31020G26KT 230V330 10SM CLR 07/M04 A2943 RMK AO2 T00711039
KCNB 130755Z AUTO 31021G27KT 250V320 10SM CLR 07/M03 A2943 RMK AO2 T00651035
KCNB 130735Z AUTO 22020G24KT 200V300 10SM CLR 07/M03 A2943 RMK AO2 T00651035
KCNB 130715Z AUTO 22013G20KT 10SM CLR 05/M03 A2943 RMK AO2 T00511031
KCNB 130655Z AUTO 23012KT 10SM CLR 05/M03 A2944 RMK AO2 T00501033
KCNB 130635Z AUTO 22014KT 10SM CLR 05/M03 A2947 RMK AO2 T00501033
KCNB 130615Z AUTO 22017G24KT 10SM CLR 05/M03 A2948 RMK AO2 T00541033
KCNB 130555Z AUTO 23017G24KT 10SM CLR 07/M03 A2948 RMK AO2 T00651033 10070 20043 400701117
KCNB 130535Z AUTO 22015G20KT 10SM CLR 07/M03 A2950 RMK AO2 T00681033
KCNB 130515Z AUTO 23011KT 10SM CLR 07/M03 A2952 RMK AO2 T00681032
KCNB 130455Z AUTO 23016G21KT 10SM CLR 07/M03 A2953 RMK AO2 T00671027
KCNB 130435Z AUTO 22016G22KT 10SM CLR 07/M03 A2955 RMK AO2 T00701028
KCNB 130415Z AUTO 00000KT 10SM CLR 07/M03 A2957 RMK AO2 T00651026
KCNB 130355Z AUTO 23004KT 10SM CLR 05/M02 A2958 RMK AO2 T00511023
KCNB 130335Z AUTO 23010G17KT 10SM CLR 05/M02 A2960 RMK AO2 T00501021
KCNB 130315Z AUTO 23015G22KT 10SM CLR 05/M02 A2963 RMK AO2 T00501020
KCNB 130255Z AUTO 22015G24KT 10SM CLR 05/M02 A2965 RMK AO2 T00501017
KCNB 130235Z AUTO 23016G22KT 10SM CLR 05/M01 A2967 RMK AO2 T00461015
KCNB 130215Z AUTO 22015G23KT 10SM CLR 05/M01 A2969 RMK AO2 T00461013
KCNB 130155Z AUTO 23015G20KT 10SM CLR 05/M01 A2970 RMK AO2 T00461011
KCNB 130135Z AUTO 23013G23KT 10SM CLR 05/M01 A2970 RMK AO2 T00461010
KCNB 130115Z AUTO 23015G21KT 10SM CLR 05/M01 A2972 RMK AO2 T00461010
KCNB 130055Z AUTO 23015G21KT 10SM CLR 05/M01 A2972 RMK AO2 T00451009
KCNB 130035Z AUTO 24016G24KT 10SM CLR 05/M01 A2974 RMK AO2 T00451007
KCNB 130015Z AUTO 23017G26KT 10SM CLR 05/M01 A2975 RMK AO2 T00451006
KCNB 122356Z AUTO 23015G20KT 10SM CLR 04/M01 A2977 RMK AO2 T00421006 10058 20016
KCNB 122335Z AUTO 20003KT 10SM CLR 04/M01 A2980 RMK AO2 T00431008
KCNB 122315Z AUTO 24010KT 10SM CLR 04/M01 A2982 RMK AO2 T00431006
KCNB 122255Z AUTO 24010KT 10SM CLR 05/00 A2983 RMK AO2 T00451005
KCNB 122235Z AUTO 23007KT 10SM CLR 05/M01 A2984 RMK AO2 T00491007
KCNB 122215Z AUTO 22009G17KT 10SM CLR 05/M01 A2987 RMK AO2 T00531008
KCNB 122155Z AUTO 21013G17KT 10SM CLR 06/M01 A2987 RMK AO2 T00551008
KCNB 122135Z AUTO 21010KT 10SM CLR 06/M01 A2988 RMK AO2 T00581010
KCNB 122115Z AUTO 23013G19KT 10SM SCT075 05/M01 A2988 RMK AO2 T00531011
KCNB 122055Z AUTO 22014G23KT 10SM SCT075 06/M01 A2989 RMK AO2 T00551013
KCNB 122035Z AUTO 22012G22KT 10SM CLR 05/M01 A2990 RMK AO2 T00541011
KCNB 122015Z AUTO 22014G24KT 10SM SCT075 06/M01 A2993 RMK AO2 T00561012
KCNB 121955Z AUTO 22018G23KT 10SM OVC075 05/M01 A2995 RMK AO2 T00541012
KCNB 121935Z AUTO 21016G23KT 10SM BKN075 05/M01 A2997 RMK AO2 T00461014
KCNB 121915Z AUTO 22012G20KT 10SM CLR 05/M01 A2999 RMK AO2 T00451012
KCNB 121855Z AUTO 23014G22KT 10SM CLR 04/M01 A3000 RMK AO2 T00391013
KCNB 121835Z AUTO 23012G22KT 200V270 10SM SCT120 03/M01 A3002 RMK AO2 T00341014
KCNB 121815Z AUTO 22014G18KT 10SM SCT120 02/M02 A3002 RMK AO2 T00241017
KCNB 121755Z AUTO 22010G14KT 10SM CLR 02/M02 A3006 RMK AO2 T00151023 10015 21089
KCNB 121735Z AUTO 22008KT 10SM SCT036 01/M03 A3009 RMK AO2 T00061027
KCNB 121715Z AUTO 24006KT 10SM BKN034 00/M03 A3011 RMK AO2 T10021035
KCNB 121655Z AUTO 22011G17KT 10SM BKN034 BKN042 M01/M04 A3013 RMK AO2 T10091040
KCNB 121635Z AUTO 23010G15KT 10SM SCT032 BKN042 M02/M05 A3013 RMK AO2 T10161046
KCNB 121615Z AUTO 23010KT 10SM SCT030 SCT034 OVC044 M01/M05 A3013 RMK AO2 T10131046
KCNB 121515Z AUTO 21011KT 10SM BKN050 M02/M05 A3015 RMK AO2 T10251052
KCNB 121455Z AUTO 22012G18KT 10SM SCT050 M03/M06 A3015 RMK AO2 T10351059
KCNB 121435Z AUTO 22011G15KT 10SM SCT050 M04/M07 A3015 RMK AO2 T10451067
KCNB 121415Z AUTO 23011KT 10SM BKN050 M05/M07 A3017 RMK AO2 T10511075
KCNB 121355Z AUTO 23011G16KT 10SM OVC050 M05/M08 A3018 RMK AO2 T10551078
KCNB 121335Z AUTO 22010KT 10SM OVC050 M05/M08 A3019 RMK AO2 T10521076
KCNB 121315Z AUTO 22009KT 10SM SCT023 OVC060 M05/M07 A3020 RMK AO2 T10491071
KCNB 121255Z AUTO 23004KT 10SM BKN023 OVC060 M05/M07 A3022 RMK AO2 T10521074
KCNB 121235Z AUTO 22004KT 10SM OVC023 M07/M09 A3023 RMK AO2 T10661086
KCNB 121215Z AUTO 23004KT 10SM OVC023 M08/M10 A3024 RMK AO2 T10761096
KCNB 121155Z AUTO 23003KT 10SM SCT025 M09/M11 A3026 RMK AO2 T10921110 11092 21117
KCNB 121135Z AUTO 24003KT 10SM CLR M10/M12 A3025 RMK AO2 T10981116
KCNB 121115Z AUTO 00000KT 10SM CLR M10/M12 A3027 RMK AO2 T11001116
KCNB 121055Z AUTO 27005KT 10SM CLR M10/M12 A3029 RMK AO2 T11001117
KCNB 121035Z AUTO 22004KT 10SM CLR M10/M12 A3029 RMK AO2 T11031121
KCNB 121015Z AUTO 30006KT 10SM CLR M11/M12 A3031 RMK AO2 T11071124
KCNB 120955Z AUTO 24005KT 10SM CLR M11/M13 A3031 RMK AO2 T11091128
KCNB 120935Z AUTO 00000KT 10SM CLR M11/M13 A3030 RMK AO2 T11151133
KCNB 120915Z AUTO 21003KT 10SM CLR M11/M13 A3031 RMK AO2 T11081127
KCNB 120855Z AUTO 00000KT 10SM CLR M11/M13 A3032 RMK AO2 T11121128
KCNB 120835Z AUTO 31003KT 10SM CLR M11/M13 A3032 RMK AO2 T11131129
KCNB 120816Z AUTO 00000KT 10SM CLR M11/M12 A3033 RMK AO2 T11061122
KCNB 120755Z AUTO 00000KT 10SM CLR M10/M12 A3033 RMK AO2 T11051121
KCNB 120735Z AUTO 32003KT 10SM CLR M10/M12 A3033 RMK AO2 T11051121
KCNB 120715Z AUTO 32003KT 10SM CLR M10/M12 A3034 RMK AO2 T11051121
KCNB 120655Z AUTO 32005KT 10SM CLR M10/M12 A3034 RMK AO2 T11051121
KCNB 120635Z AUTO 30005KT 10SM CLR M10/M11 A3034 RMK AO2 T10981115
KCNB 120615Z AUTO 31005KT 10SM CLR M10/M12 A3034 RMK AO2 T11031116
KCNB 120555Z AUTO 32004KT 10SM CLR M10/M12 A3034 RMK AO2 T11051117 11052 21108 400651108
KCNB 120535Z AUTO 32003KT 10SM CLR M11/M12 A3034 RMK AO2 T11071119
KCNB 120515Z AUTO 32004KT 10SM CLR M11/M12 A3035 RMK AO2 T11061121
KCNB 120455Z AUTO 30004KT 10SM CLR M10/M11 A3035 RMK AO2 T11001114
KCNB 120435Z AUTO 28004KT 10SM CLR M10/M11 A3035 RMK AO2 T11001115
KCNB 120415Z AUTO 27005KT 10SM CLR M10/M11 A3036 RMK AO2 T10961112
KCNB 120355Z AUTO 28007KT 10SM CLR M09/M11 A3035 RMK AO2 T10921109
KCNB 120335Z AUTO 27006KT 10SM CLR M09/M11 A3036 RMK AO2 T10901108
KCNB 120315Z AUTO 28005KT 10SM CLR M09/M11 A3035 RMK AO2 T10911111
KCNB 120255Z AUTO 29005KT 10SM CLR M08/M11 A3034 RMK AO2 T10841106
KCNB 120235Z AUTO 32007KT 10SM CLR M08/M10 A3033 RMK AO2 T10771104
KCNB 120215Z AUTO 33007KT 300V360 10SM CLR M07/M10 A3033 RMK AO2 T10721101
KCNB 120155Z AUTO 32009KT 290V350 10SM CLR M07/M10 A3032 RMK AO2 T10671098
KCNB 120135Z AUTO 33011G18KT 290V350 10SM CLR M06/M10 A3032 RMK AO2 T10631096
KCNB 120115Z AUTO 30016G21KT 270V340 10SM CLR M06/M09 A3031 RMK AO2 T10601093
KCNB 120055Z AUTO 30013G22KT 270V330 10SM CLR M06/M09 A3029 RMK AO2 T10561091
KCNB 120035Z AUTO 28015G20KT 10SM CLR M05/M09 A3028 RMK AO2 T10551090
KCNB 120015Z AUTO 28018G24KT 10SM CLR M05/M09 A3027 RMK AO2 T10521090
KCNB 112355Z AUTO 29014G21KT 270V340 10SM CLR M05/M09 A3026 RMK AO2 T10531087 10000 21054
KCNB 112335Z AUTO 30012G17KT 270V340 10SM CLR M05/M09 A3026 RMK AO2 T10521090
KCNB 112315Z AUTO 30012G19KT 270V340 10SM CLR M05/M09 A3025 RMK AO2 T10501088